Upper Deerfield Twp, New Jersey
Current Conditions -  °F | °C
As of 12:54 AM on Wednesday 28 Jan 2015 (Local Time) from KMIV Reporting Station
Clear Clear  
Wind Chill: 10°   Ceiling: Unl
Heat Index: 22°   Visibility: 10mi
Dew Point:   Wind: 13mph
Humidity: 55%   Direction: 330°NNW
Pressure: 29.9"   Gusts: 25mph
Location:  39.4433°N, 75.2554°W
Report Text: KMIV 280554Z AUTO 33011G22KT 10SM CLR M06/M13 A2990 RMK AO2 SLP126 T10561133 11006 21056 51023
Loading
Personal Weather Stations






























Interactive Weather Map New forecast layout! Learn more

10-Day Weather Forecast

Advertisements
Track Severe Weather on mobile